createdAt,value
2017-11-28T00:00:37.979Z,9.00
2017-11-28T00:03:06.292Z,9.00
2017-11-28T00:05:35.390Z,9.00
2017-11-28T00:08:04.483Z,8.90
2017-11-28T00:10:33.571Z,9.00
2017-11-28T00:13:02.641Z,9.10
2017-11-28T00:15:30.982Z,9.10
2017-11-28T00:17:59.339Z,9.10
2017-11-28T00:20:28.445Z,9.20
2017-11-28T00:22:57.534Z,9.20
2017-11-28T00:25:25.853Z,9.20
2017-11-28T00:27:54.166Z,9.20
2017-11-28T00:30:22.626Z,9.30
2017-11-28T00:32:50.960Z,9.30
2017-11-28T00:35:19.289Z,9.30
2017-11-28T00:37:47.628Z,9.30
2017-11-28T00:40:15.944Z,9.20
2017-11-28T00:42:44.243Z,9.10
2017-11-28T00:45:12.670Z,9.10
2017-11-28T00:47:40.994Z,9.00
2017-11-28T00:50:09.312Z,9.10
2017-11-28T00:52:38.497Z,9.00
2017-11-28T00:55:06.802Z,9.10
2017-11-28T00:57:35.148Z,9.00
2017-11-28T01:00:03.481Z,9.00
2017-11-28T01:02:32.577Z,9.00
2017-11-28T01:05:01.044Z,9.00
2017-11-28T01:07:29.356Z,8.90
2017-11-28T01:09:58.548Z,8.90
2017-11-28T01:12:27.663Z,8.90
2017-11-28T01:14:55.989Z,8.90
2017-11-28T01:17:24.348Z,8.90
2017-11-28T01:19:52.790Z,9.00
2017-11-28T01:22:21.861Z,9.00
2017-11-28T01:24:51.677Z,9.10
2017-11-28T01:27:20.045Z,9.10
2017-11-28T01:29:48.357Z,9.10
2017-11-28T01:32:16.934Z,9.00
2017-11-28T01:34:45.274Z,9.00
2017-11-28T01:37:13.647Z,9.00
2017-11-28T01:39:42.110Z,9.00
2017-11-28T01:42:11.201Z,9.00
2017-11-28T01:44:40.315Z,9.00
2017-11-28T01:47:09.543Z,9.00
2017-11-28T01:49:37.883Z,9.00
2017-11-28T01:52:07.111Z,9.00
2017-11-28T01:54:35.469Z,9.00
2017-11-28T01:57:04.607Z,9.10
2017-11-28T01:59:32.990Z,9.10
2017-11-28T02:02:01.317Z,9.10
2017-11-28T02:04:29.697Z,9.00
2017-11-28T02:06:58.032Z,9.00
2017-11-28T02:09:26.407Z,9.00
2017-11-28T02:11:54.745Z,8.90
2017-11-28T02:14:23.148Z,8.90
2017-11-28T02:16:51.469Z,8.90
2017-11-28T02:19:19.860Z,9.00
2017-11-28T02:21:48.751Z,8.90
2017-11-28T02:24:18.141Z,8.90
2017-11-28T02:26:46.606Z,8.90
2017-11-28T02:29:15.421Z,8.90
2017-11-28T02:31:43.955Z,8.90
2017-11-28T02:34:13.264Z,8.90
2017-11-28T02:36:42.740Z,8.80
2017-11-28T02:39:11.105Z,8.80
2017-11-28T02:41:39.472Z,8.90
2017-11-28T02:44:08.609Z,8.90
2017-11-28T02:46:36.905Z,8.90
2017-11-28T02:49:16.979Z,8.90
2017-11-28T02:51:51.864Z,8.90
2017-11-28T02:54:20.797Z,8.90
2017-11-28T02:56:49.257Z,8.80
2017-11-28T03:06:30.136Z,8.90
2017-11-28T03:09:16.968Z,9.00
2017-11-28T03:11:45.297Z,9.00
2017-11-28T03:27:46.774Z,8.80
2017-11-28T03:33:08.565Z,8.80
2017-11-28T03:35:36.978Z,8.80
2017-11-28T03:38:05.673Z,8.80
2017-11-28T03:40:34.008Z,8.80
2017-11-28T03:43:03.107Z,8.80
2017-11-28T03:45:47.828Z,8.80
2017-11-28T03:48:16.421Z,8.70
2017-11-28T03:50:44.875Z,8.70
2017-11-28T03:53:14.882Z,8.90
2017-11-28T03:55:43.394Z,9.00
2017-11-28T03:58:12.506Z,9.00
2017-11-28T04:00:41.080Z,9.10
2017-11-28T04:03:10.256Z,9.10
2017-11-28T04:05:39.255Z,9.10
2017-11-28T04:08:07.613Z,9.20
2017-11-28T04:10:36.024Z,9.20
2017-11-28T04:13:04.658Z,9.20
2017-11-28T04:15:32.983Z,9.20
2017-11-28T04:18:01.464Z,9.20
2017-11-28T04:20:29.892Z,9.30
2017-11-28T04:22:58.195Z,9.30
2017-11-28T04:25:27.455Z,9.40
2017-11-28T04:27:55.992Z,9.40
2017-11-28T04:30:25.359Z,9.40
2017-11-28T04:32:53.900Z,9.40
2017-11-28T04:35:22.403Z,9.50
2017-11-28T04:37:51.411Z,9.50
2017-11-28T04:40:19.902Z,9.50
2017-11-28T04:42:48.257Z,9.50
2017-11-28T04:45:16.930Z,9.50
2017-11-28T04:47:45.536Z,9.50
2017-11-28T04:50:15.061Z,9.50
2017-11-28T04:52:43.457Z,9.60
2017-11-28T04:55:11.944Z,9.70
2017-11-28T04:57:41.044Z,9.80
2017-11-28T05:00:10.175Z,9.80
2017-11-28T05:02:39.256Z,9.80
2017-11-28T05:05:07.579Z,9.80
2017-11-28T05:07:35.977Z,9.90
2017-11-28T05:10:05.113Z,9.80
2017-11-28T05:12:34.272Z,9.90
2017-11-28T05:15:02.654Z,9.90
2017-11-28T05:17:31.072Z,10.00
2017-11-28T05:19:59.552Z,10.10
2017-11-28T05:22:28.643Z,10.10
2017-11-28T05:24:57.689Z,10.10
2017-11-28T05:27:26.341Z,10.10
2017-11-28T05:29:55.778Z,10.00
2017-11-28T05:32:25.466Z,9.80
2017-11-28T05:34:54.061Z,9.80
2017-11-28T05:37:22.377Z,9.60
2017-11-28T05:39:51.181Z,9.60
2017-11-28T05:42:19.799Z,9.50
2017-11-28T05:44:48.176Z,9.50
2017-11-28T05:47:16.584Z,9.50
2017-11-28T05:49:44.891Z,9.60
2017-11-28T05:52:13.357Z,9.70
2017-11-28T05:54:43.341Z,9.80
2017-11-28T05:57:12.315Z,9.80
2017-11-28T05:59:40.751Z,9.90
2017-11-28T06:02:09.390Z,9.90
2017-11-28T06:04:37.760Z,10.00
2017-11-28T06:07:06.269Z,9.90
2017-11-28T06:09:34.639Z,9.40
2017-11-28T06:12:03.574Z,8.80
2017-11-28T06:14:32.134Z,8.30
2017-11-28T06:17:00.716Z,8.00
2017-11-28T06:19:29.236Z,7.80
2017-11-28T06:21:58.348Z,7.70
2017-11-28T06:24:27.425Z,7.70
2017-11-28T06:26:58.030Z,7.60
2017-11-28T06:29:27.243Z,7.70
2017-11-28T06:31:55.610Z,7.60
2017-11-28T06:34:24.308Z,7.70
2017-11-28T06:36:52.888Z,7.80
2017-11-28T06:53:00.231Z,8.20
2017-11-28T06:55:28.868Z,8.20
2017-11-28T06:57:57.418Z,8.30
2017-11-28T07:00:26.000Z,8.40
2017-11-28T07:02:54.311Z,8.30
2017-11-28T07:05:22.716Z,8.40
2017-11-28T07:07:51.009Z,8.40
2017-11-28T07:10:19.335Z,8.40
2017-11-28T07:12:47.710Z,8.60
2017-11-28T07:15:16.044Z,8.60
2017-11-28T07:17:45.155Z,8.70
2017-11-28T07:20:13.698Z,8.70
2017-11-28T07:22:42.137Z,8.80
2017-11-28T07:25:10.486Z,8.80
2017-11-28T07:27:39.712Z,8.90
2017-11-28T07:30:08.027Z,8.90
2017-11-28T07:32:36.429Z,8.90
2017-11-28T07:35:04.902Z,8.80
2017-11-28T07:37:33.910Z,8.60
2017-11-28T07:40:02.262Z,8.20
2017-11-28T07:42:30.604Z,7.90
2017-11-28T07:44:59.710Z,7.10
2017-11-28T07:47:28.023Z,7.00
2017-11-28T07:49:56.596Z,6.70
2017-11-28T07:52:24.935Z,6.60
2017-11-28T07:54:53.256Z,6.70
2017-11-28T07:57:21.726Z,6.90
2017-11-28T07:59:50.833Z,7.20
2017-11-28T08:02:19.853Z,7.20
2017-11-28T08:04:48.207Z,7.30
2017-11-28T08:07:16.527Z,7.40
2017-11-28T08:09:44.933Z,7.50
2017-11-28T08:12:14.084Z,7.60
2017-11-28T08:14:42.410Z,7.60
2017-11-28T08:17:10.870Z,7.70
2017-11-28T08:19:39.376Z,7.70
2017-11-28T08:22:10.067Z,7.80
2017-11-28T08:24:39.005Z,7.80
2017-11-28T08:27:07.314Z,7.80
2017-11-28T08:29:36.956Z,7.40
2017-11-28T08:32:05.458Z,7.50
2017-11-28T08:34:33.795Z,7.10
2017-11-28T08:37:03.036Z,6.40
2017-11-28T08:39:31.478Z,6.30
2017-11-28T08:41:59.892Z,6.30
2017-11-28T08:44:29.125Z,6.10
2017-11-28T08:46:57.435Z,6.00
2017-11-28T08:49:26.605Z,6.10
2017-11-28T08:51:54.944Z,6.10
2017-11-28T08:54:23.246Z,6.30
2017-11-28T08:56:51.577Z,6.40
2017-11-28T08:59:21.229Z,6.60
2017-11-28T09:01:49.546Z,6.50
2017-11-28T09:04:18.833Z,6.80
2017-11-28T09:06:47.206Z,6.80
2017-11-28T09:09:15.684Z,6.90
2017-11-28T09:11:44.114Z,7.00
2017-11-28T09:14:12.510Z,7.00
2017-11-28T09:16:41.745Z,7.00
2017-11-28T09:19:10.183Z,7.00
2017-11-28T09:21:38.513Z,6.90
2017-11-28T09:24:06.901Z,6.90
2017-11-28T09:26:35.220Z,6.80
2017-11-28T09:29:03.655Z,6.80
2017-11-28T09:31:31.962Z,6.80
2017-11-28T09:34:00.507Z,6.80
2017-11-28T09:36:28.819Z,6.80
2017-11-28T09:38:57.241Z,6.90
2017-11-28T09:41:26.319Z,7.10
2017-11-28T09:43:54.656Z,7.10
2017-11-28T09:46:22.961Z,7.20
2017-11-28T09:48:51.281Z,7.30
2017-11-28T09:51:20.538Z,7.50
2017-11-28T09:53:48.831Z,7.40
2017-11-28T09:56:17.143Z,7.50
2017-11-28T09:58:45.594Z,7.70
2017-11-28T10:01:13.985Z,7.90
2017-11-28T10:03:42.305Z,7.90
2017-11-28T10:06:11.390Z,7.40
2017-11-28T10:08:40.532Z,7.20
2017-11-28T10:11:08.867Z,7.10
2017-11-28T10:13:37.938Z,6.70
2017-11-28T10:16:06.284Z,6.70
2017-11-28T10:18:35.424Z,6.60
2017-11-28T10:21:04.530Z,6.50
2017-11-28T10:23:32.863Z,6.50
2017-11-28T10:26:01.197Z,6.50
2017-11-28T10:28:31.033Z,6.60
2017-11-28T10:31:00.105Z,6.50
2017-11-28T10:33:29.200Z,6.50
2017-11-28T10:35:57.621Z,6.50
2017-11-28T10:38:26.696Z,6.50
2017-11-28T10:40:55.789Z,6.50
2017-11-28T10:43:25.043Z,6.50
2017-11-28T10:45:53.361Z,6.50
2017-11-28T10:48:21.696Z,6.50
2017-11-28T10:50:50.032Z,6.60
2017-11-28T10:53:19.881Z,6.80
2017-11-28T10:55:48.219Z,6.80
2017-11-28T10:58:17.315Z,6.90
2017-11-28T11:00:45.812Z,6.90
2017-11-28T11:03:14.125Z,6.90
2017-11-28T11:05:42.430Z,6.90
2017-11-28T11:08:10.769Z,7.00
2017-11-28T11:10:40.632Z,7.10
2017-11-28T11:13:08.966Z,7.10
2017-11-28T11:15:38.045Z,7.20
2017-11-28T11:18:06.428Z,7.20
2017-11-28T11:20:35.796Z,7.10
2017-11-28T11:23:04.110Z,7.10
2017-11-28T11:25:33.960Z,7.20
2017-11-28T11:28:02.287Z,7.20
2017-11-28T11:30:30.605Z,7.30
2017-11-28T11:32:58.900Z,7.40
2017-11-28T11:35:27.253Z,7.50
2017-11-28T11:37:56.349Z,7.70
2017-11-28T11:40:24.765Z,7.60
2017-11-28T11:42:53.921Z,7.80
2017-11-28T11:45:22.335Z,7.80
2017-11-28T11:47:50.663Z,8.00
2017-11-28T11:50:19.121Z,8.20
2017-11-28T11:52:47.484Z,8.40
2017-11-28T11:55:16.618Z,8.60
2017-11-28T11:57:45.600Z,8.60
2017-11-28T12:00:13.964Z,8.60
2017-11-28T12:02:43.050Z,8.70
2017-11-28T12:05:11.374Z,8.70
2017-11-28T12:07:39.681Z,8.80
2017-11-28T12:10:08.023Z,8.80
2017-11-28T12:12:36.345Z,8.90
2017-11-28T12:15:04.678Z,9.00
2017-11-28T12:17:33.013Z,9.10
2017-11-28T12:20:01.359Z,9.20
2017-11-28T12:22:31.023Z,9.20
2017-11-28T12:24:59.346Z,9.20
2017-11-28T12:27:27.753Z,9.20
2017-11-28T12:29:56.111Z,9.30
2017-11-28T12:32:24.576Z,9.40
2017-11-28T12:34:52.913Z,9.60
2017-11-28T12:37:21.256Z,9.70
2017-11-28T12:39:49.597Z,9.80
2017-11-28T12:42:17.962Z,9.80
2017-11-28T12:44:46.313Z,9.70
2017-11-28T12:47:14.630Z,9.60
2017-11-28T12:49:44.461Z,9.30
2017-11-28T12:52:14.308Z,9.20
2017-11-28T12:54:42.728Z,9.20
2017-11-28T12:57:11.027Z,9.10
2017-11-28T12:59:40.100Z,8.90
2017-11-28T13:02:08.423Z,8.90
2017-11-28T13:04:37.508Z,9.00
2017-11-28T13:07:05.843Z,9.00
2017-11-28T13:09:34.160Z,9.00
2017-11-28T13:12:02.488Z,9.20
2017-11-28T13:14:30.805Z,9.40
2017-11-28T13:16:59.105Z,9.60
2017-11-28T13:19:27.697Z,9.90
2017-11-28T13:21:56.014Z,10.20
2017-11-28T13:24:25.112Z,10.80
2017-11-28T13:26:54.208Z,10.90
2017-11-28T13:29:23.305Z,10.70
2017-11-28T13:31:52.479Z,10.40
2017-11-28T13:34:20.819Z,10.40
2017-11-28T13:36:49.237Z,10.20
2017-11-28T13:39:17.538Z,9.90
2017-11-28T13:41:46.640Z,9.40
2017-11-28T13:44:15.723Z,8.80
2017-11-28T13:46:44.226Z,8.80
2017-11-28T13:49:13.321Z,8.20
2017-11-28T13:51:42.428Z,8.10
2017-11-28T13:54:11.600Z,8.00
2017-11-28T13:56:40.439Z,8.00
2017-11-28T13:59:08.753Z,8.00
2017-11-28T14:01:37.072Z,8.00
2017-11-28T14:04:05.379Z,8.10
2017-11-28T14:06:33.696Z,8.00
2017-11-28T14:09:02.003Z,8.00
2017-11-28T14:11:31.106Z,7.90
2017-11-28T14:14:00.274Z,7.80
2017-11-28T14:16:28.604Z,7.80
2017-11-28T14:18:57.673Z,7.80
2017-11-28T14:21:27.862Z,7.80
2017-11-28T14:24:02.641Z,7.80
2017-11-28T14:26:38.355Z,7.70
2017-11-28T14:32:09.983Z,7.70
2017-11-28T14:34:44.260Z,7.70
2017-11-28T14:37:12.570Z,7.70
2017-11-28T14:39:40.908Z,7.70
2017-11-28T14:42:19.240Z,7.70
2017-11-28T14:47:50.949Z,7.60
2017-11-28T14:50:19.287Z,7.60
2017-11-28T14:52:49.205Z,7.60
2017-11-28T14:55:23.917Z,7.50
2017-11-28T14:58:04.949Z,7.50
2017-11-28T15:00:39.469Z,7.50
2017-11-28T15:03:13.165Z,7.40
2017-11-28T15:05:46.814Z,7.40
2017-11-28T15:08:20.667Z,7.40
2017-11-28T15:10:50.843Z,7.50
2017-11-28T15:16:25.299Z,7.50
2017-11-28T15:18:53.662Z,7.50
2017-11-28T15:21:27.756Z,7.50
2017-11-28T15:23:58.424Z,7.50
2017-11-28T15:26:29.056Z,7.50
2017-11-28T15:29:13.047Z,7.50
2017-11-28T15:31:41.374Z,7.50
2017-11-28T15:34:10.779Z,7.60
2017-11-28T15:36:40.098Z,7.60
2017-11-28T15:39:08.447Z,7.60
2017-11-28T15:41:36.777Z,7.60
2017-11-28T15:44:05.091Z,7.60
2017-11-28T15:46:33.448Z,7.50
2017-11-28T15:49:01.754Z,7.40
2017-11-28T15:51:30.858Z,7.20
2017-11-28T15:53:59.163Z,7.10
2017-11-28T15:56:27.535Z,7.00
2017-11-28T15:58:56.706Z,6.70
2017-11-28T16:01:25.040Z,6.70
2017-11-28T16:03:53.341Z,6.70
2017-11-28T16:06:21.642Z,6.80
2017-11-28T16:08:50.005Z,6.80
2017-11-28T16:11:18.319Z,6.90
2017-11-28T16:13:48.149Z,6.90
2017-11-28T16:16:17.499Z,6.90
2017-11-28T16:18:45.829Z,6.90
2017-11-28T16:21:14.174Z,6.90
2017-11-28T16:23:42.476Z,6.90
2017-11-28T16:26:10.790Z,7.00
2017-11-28T16:28:39.908Z,7.00
2017-11-28T16:31:08.217Z,7.00
2017-11-28T16:33:36.986Z,7.00
2017-11-28T16:36:05.300Z,7.10
2017-11-28T16:38:33.650Z,7.10
2017-11-28T16:41:01.943Z,7.20
2017-11-28T16:43:30.255Z,7.10
2017-11-28T16:46:00.079Z,7.00
2017-11-28T16:48:29.205Z,6.90
2017-11-28T16:50:57.538Z,6.90
2017-11-28T16:53:25.890Z,6.90
2017-11-28T16:55:54.201Z,6.80
2017-11-28T16:58:23.330Z,6.70
2017-11-28T17:00:52.771Z,6.60
2017-11-28T17:03:21.083Z,6.60
2017-11-28T17:05:49.434Z,6.40
2017-11-28T17:08:17.766Z,6.30
2017-11-28T17:10:46.107Z,6.30
2017-11-28T17:13:14.441Z,6.30
2017-11-28T17:15:42.750Z,6.40
2017-11-28T17:18:11.065Z,6.50
2017-11-28T17:20:39.399Z,6.50
2017-11-28T17:23:07.716Z,6.50
2017-11-28T17:25:36.012Z,6.50
2017-11-28T17:28:04.332Z,6.50
2017-11-28T17:30:33.422Z,6.50
2017-11-28T17:33:01.786Z,6.50
2017-11-28T17:35:30.091Z,6.50
2017-11-28T17:37:59.182Z,6.50
2017-11-28T17:40:27.509Z,6.50
2017-11-28T17:42:55.890Z,6.50
2017-11-28T17:45:24.210Z,6.50
2017-11-28T17:47:52.515Z,6.40
2017-11-28T17:50:21.595Z,6.50
2017-11-28T17:52:49.994Z,6.50
2017-11-28T17:55:19.062Z,6.50
2017-11-28T17:57:47.394Z,6.50
2017-11-28T18:00:15.737Z,6.50
2017-11-28T18:02:44.892Z,6.60
2017-11-28T18:05:13.250Z,6.60
2017-11-28T18:07:42.371Z,6.70
2017-11-28T18:10:10.689Z,6.70
2017-11-28T18:12:39.022Z,6.70
2017-11-28T18:15:07.352Z,6.70
2017-11-28T18:17:36.399Z,6.70
2017-11-28T18:20:04.796Z,6.60
2017-11-28T18:22:34.560Z,6.50
2017-11-28T18:25:03.651Z,6.60
2017-11-28T18:27:32.009Z,6.60
2017-11-28T18:30:00.345Z,6.70
2017-11-28T18:32:29.464Z,6.80
2017-11-28T18:34:57.856Z,6.80
2017-11-28T18:37:26.190Z,6.80
2017-11-28T18:39:54.495Z,6.80
2017-11-28T18:42:22.802Z,6.80
2017-11-28T18:44:51.109Z,6.70
2017-11-28T18:47:19.432Z,6.70
2017-11-28T18:49:47.764Z,6.60
2017-11-28T18:52:16.096Z,6.60
2017-11-28T18:54:45.205Z,6.50
2017-11-28T18:57:13.553Z,6.50
2017-11-28T18:59:42.625Z,6.50
2017-11-28T19:02:10.946Z,6.40
2017-11-28T19:04:39.310Z,6.40
2017-11-28T19:07:08.406Z,6.40
2017-11-28T19:09:36.764Z,6.40
2017-11-28T19:12:05.124Z,6.40
2017-11-28T19:14:33.528Z,6.30
2017-11-28T19:17:01.853Z,6.30
2017-11-28T19:19:30.982Z,6.20
2017-11-28T19:21:59.279Z,6.20
2017-11-28T19:24:27.587Z,6.30
2017-11-28T19:26:57.385Z,6.30
2017-11-28T19:29:25.703Z,6.30
2017-11-28T19:31:54.758Z,6.40
2017-11-28T19:34:23.068Z,6.40
2017-11-28T19:36:52.229Z,6.40
2017-11-28T19:39:20.544Z,6.50
2017-11-28T19:41:49.645Z,6.60
2017-11-28T19:44:17.964Z,6.60
2017-11-28T19:46:46.268Z,6.70
2017-11-28T19:49:14.593Z,6.70
2017-11-28T19:51:43.840Z,6.70
2017-11-28T19:54:12.277Z,6.70
2017-11-28T19:56:41.354Z,6.60
2017-11-28T19:59:09.687Z,6.60
2017-11-28T20:01:38.083Z,6.60
2017-11-28T20:04:07.453Z,6.50
2017-11-28T20:06:35.842Z,6.50
2017-11-28T20:09:04.369Z,6.50
2017-11-28T20:11:32.693Z,6.50
2017-11-28T20:14:01.209Z,6.50
2017-11-28T20:16:30.420Z,6.50
2017-11-28T20:18:58.738Z,6.50
2017-11-28T20:21:27.082Z,6.50
2017-11-28T20:23:55.369Z,6.50
2017-11-28T20:26:23.698Z,6.50
2017-11-28T20:28:52.796Z,6.60
2017-11-28T20:31:21.874Z,6.60
2017-11-28T20:33:50.166Z,6.60
2017-11-28T20:36:18.465Z,6.50
2017-11-28T20:38:47.607Z,6.40
2017-11-28T20:41:15.919Z,6.40
2017-11-28T20:43:44.261Z,6.40
2017-11-28T20:46:12.564Z,6.40
2017-11-28T20:48:40.920Z,6.40
2017-11-28T20:51:09.293Z,6.30
2017-11-28T20:53:38.327Z,6.30
2017-11-28T20:56:06.621Z,6.30
2017-11-28T20:58:34.942Z,6.20
2017-11-28T21:01:03.397Z,6.20
2017-11-28T21:03:32.500Z,6.30
2017-11-28T21:06:00.790Z,6.30
2017-11-28T21:08:29.880Z,6.30
2017-11-28T21:10:58.962Z,6.40
2017-11-28T21:13:27.271Z,6.30
2017-11-28T21:15:56.347Z,6.40
2017-11-28T21:18:25.408Z,6.40
2017-11-28T21:20:53.724Z,6.40
2017-11-28T21:23:22.045Z,6.40
2017-11-28T21:25:50.350Z,6.30
2017-11-28T21:28:18.664Z,6.40
2017-11-28T21:30:46.963Z,6.40
2017-11-28T21:33:16.049Z,6.50
2017-11-28T21:35:45.869Z,6.50
2017-11-28T21:38:14.189Z,6.50
2017-11-28T21:40:42.517Z,6.50
2017-11-28T21:43:10.821Z,6.50
2017-11-28T21:45:39.997Z,6.60
2017-11-28T21:48:08.565Z,6.50
2017-11-28T21:50:36.862Z,6.60
2017-11-28T21:53:05.174Z,6.60
2017-11-28T21:55:34.246Z,6.50
2017-11-28T21:58:02.577Z,6.60
2017-11-28T22:00:30.979Z,6.50
2017-11-28T22:02:59.324Z,6.50
2017-11-28T22:05:28.378Z,6.60
2017-11-28T22:07:56.727Z,6.60
2017-11-28T22:10:25.045Z,6.60
2017-11-28T22:12:53.837Z,6.60
2017-11-28T22:15:22.177Z,6.60
2017-11-28T22:17:50.501Z,6.60
2017-11-28T22:20:19.738Z,6.60
2017-11-28T22:22:48.820Z,6.50
2017-11-28T22:25:18.070Z,6.50
2017-11-28T22:27:46.384Z,6.50
2017-11-28T22:30:16.139Z,6.50
2017-11-28T22:32:44.613Z,6.50
2017-11-28T22:35:13.782Z,6.40
2017-11-28T22:37:43.813Z,6.40
2017-11-28T22:40:12.737Z,6.40
2017-11-28T22:42:41.095Z,6.30
2017-11-28T22:45:09.401Z,6.20
2017-11-28T22:47:37.732Z,6.10
2017-11-28T22:50:06.077Z,6.10
2017-11-28T22:52:34.386Z,6.00
2017-11-28T22:55:02.731Z,6.00
2017-11-28T22:57:31.045Z,6.00
2017-11-28T22:59:59.371Z,6.00
2017-11-28T23:02:28.536Z,6.10
2017-11-28T23:04:57.701Z,6.10
2017-11-28T23:07:26.083Z,6.20
2017-11-28T23:09:54.488Z,6.30
2017-11-28T23:12:23.793Z,6.30
2017-11-28T23:14:52.151Z,6.40
2017-11-28T23:17:21.627Z,6.40
2017-11-28T23:19:51.523Z,6.50
2017-11-28T23:22:20.655Z,6.50
2017-11-28T23:24:48.985Z,6.50
2017-11-28T23:27:17.293Z,6.50
2017-11-28T23:29:46.389Z,6.40
2017-11-28T23:32:15.475Z,6.30
2017-11-28T23:34:45.309Z,6.20
2017-11-28T23:37:13.626Z,6.20
2017-11-28T23:39:41.933Z,6.20
2017-11-28T23:42:10.265Z,6.10
2017-11-28T23:44:42.788Z,6.10
2017-11-28T23:47:15.322Z,6.10
2017-11-28T23:49:48.458Z,6.00
2017-11-28T23:52:27.237Z,6.00
2017-11-28T23:54:55.897Z,6.00
2017-11-28T23:57:25.056Z,5.90
2017-11-28T23:59:53.378Z,5.90
